Calloway Corners, Louisiana
Current Conditions -  °F | °C
As of 4:55 PM on Wednesday 22 Oct 2014 (Local Time) from KMNE Reporting Station
Clear Clear  
Wind Chill: 75°   Ceiling: Unl
Heat Index: 75°   Visibility: 10mi
Dew Point: 52°   Wind: 5mph
Humidity: 44%   Direction: 60°ENE
Pressure: 30.1"   Gusts: NA
Location:  32.5043°N, 93.2934°W
Report Text: KMNE 222155Z AUTO 06004KT 10SM CLR 24/11 A3010 RMK AO2
Loading
Personal Weather Stations






























Interactive Weather Map
Tropical Storm Tracking
New forecast layout! Learn more

10-Day Weather Forecast

Advertisements
Track Severe Weather on mobile